createdAt,value
2019-06-27T00:01:46.600Z,3.23
2019-06-27T00:04:15.437Z,2.80
2019-06-27T00:06:44.202Z,3.40
2019-06-27T00:09:13.515Z,3.00
2019-06-27T00:11:42.775Z,3.40
2019-06-27T00:14:11.752Z,2.77
2019-06-27T00:16:41.004Z,2.77
2019-06-27T00:19:09.974Z,2.67
2019-06-27T00:21:39.063Z,4.50
2019-06-27T00:24:08.534Z,3.27
2019-06-27T00:26:37.311Z,2.90
2019-06-27T00:29:06.551Z,3.10
2019-06-27T00:31:36.068Z,3.50
2019-06-27T00:34:05.162Z,3.47
2019-06-27T00:36:34.147Z,3.30
2019-06-27T00:39:03.254Z,3.70
2019-06-27T00:41:32.584Z,3.67
2019-06-27T00:44:01.449Z,4.00
2019-06-27T00:46:30.514Z,3.40
2019-06-27T00:48:59.977Z,4.00
2019-06-27T00:51:29.263Z,3.60
2019-06-27T00:53:59.725Z,3.55
2019-06-27T00:56:28.515Z,4.22
2019-06-27T00:58:59.819Z,4.50
2019-06-27T01:01:30.180Z,4.50
2019-06-27T01:03:59.579Z,4.27
2019-06-27T01:06:28.675Z,4.47
2019-06-27T01:08:57.895Z,4.80
2019-06-27T01:11:26.631Z,3.90
2019-06-27T01:13:55.390Z,4.50
2019-06-27T01:16:24.834Z,4.80
2019-06-27T01:18:54.448Z,4.67
2019-06-27T01:21:23.676Z,5.27
2019-06-27T01:23:52.953Z,5.07
2019-06-27T01:26:22.491Z,4.30
2019-06-27T01:28:51.503Z,5.30
2019-06-27T01:31:20.581Z,6.73
2019-06-27T01:33:49.446Z,5.70
2019-06-27T01:36:18.786Z,5.33
2019-06-27T01:38:48.050Z,5.40
2019-06-27T01:41:17.064Z,4.63
2019-06-27T01:43:46.318Z,4.87
2019-06-27T01:46:15.342Z,4.50
2019-06-27T01:48:44.331Z,4.57
2019-06-27T01:51:13.346Z,4.50
2019-06-27T01:53:42.361Z,6.77
2019-06-27T01:56:11.614Z,4.83
2019-06-27T01:58:40.492Z,5.20
2019-06-27T02:01:09.488Z,4.70
2019-06-27T02:03:38.338Z,5.30
2019-06-27T02:06:07.183Z,4.87
2019-06-27T02:08:36.266Z,4.70
2019-06-27T02:11:05.974Z,4.27
2019-06-27T02:13:35.046Z,5.27
2019-06-27T02:16:03.872Z,5.17
2019-06-27T02:18:32.970Z,5.60
2019-06-27T02:21:01.973Z,4.93
2019-06-27T02:23:30.726Z,5.43
2019-06-27T02:25:59.742Z,5.90
2019-06-27T02:28:28.730Z,5.10
2019-06-27T02:30:57.494Z,5.47
2019-06-27T02:33:26.740Z,5.20
2019-06-27T02:35:56.144Z,5.13
2019-06-27T02:38:25.247Z,5.50
2019-06-27T02:40:58.515Z,4.47
2019-06-27T02:43:25.041Z,5.50
2019-06-27T02:45:53.784Z,4.73
2019-06-27T02:48:22.807Z,4.77
2019-06-27T02:50:51.972Z,4.80
2019-06-27T02:53:20.988Z,4.57
2019-06-27T02:55:49.983Z,5.00
2019-06-27T02:58:29.821Z,5.30
2019-06-27T03:00:49.577Z,5.43
2019-06-27T03:03:18.574Z,4.90
2019-06-27T03:05:47.403Z,5.67
2019-06-27T03:08:16.760Z,4.90
2019-06-27T03:10:46.215Z,5.33
2019-06-27T03:13:15.020Z,5.03
2019-06-27T03:15:44.036Z,5.70
2019-06-27T03:18:13.033Z,6.30
2019-06-27T03:20:42.116Z,5.13
2019-06-27T03:23:11.213Z,5.60
2019-06-27T03:25:40.247Z,5.60
2019-06-27T03:28:09.590Z,5.62
2019-06-27T03:30:38.613Z,5.33
2019-06-27T03:33:07.997Z,5.33
2019-06-27T03:35:37.341Z,4.83
2019-06-27T03:38:06.503Z,4.90
2019-06-27T03:40:35.751Z,5.00
2019-06-27T03:43:04.771Z,4.70
2019-06-27T03:45:34.276Z,5.07
2019-06-27T03:48:03.526Z,4.87
2019-06-27T03:50:32.619Z,4.30
2019-06-27T03:53:01.362Z,4.83
2019-06-27T03:55:30.229Z,4.60
2019-06-27T03:57:59.283Z,4.63
2019-06-27T04:00:32.540Z,4.80
2019-06-27T04:03:01.826Z,4.67
2019-06-27T04:05:30.836Z,5.00
2019-06-27T04:07:59.910Z,4.90
2019-06-27T04:10:28.884Z,4.90
2019-06-27T04:12:58.212Z,4.57
2019-06-27T04:15:27.497Z,4.67
2019-06-27T04:17:56.661Z,5.12
2019-06-27T04:20:25.858Z,4.90
2019-06-27T04:22:54.594Z,5.13
2019-06-27T04:25:23.599Z,5.28
2019-06-27T04:27:52.620Z,5.40
2019-06-27T04:30:21.797Z,4.90
2019-06-27T04:32:50.907Z,5.50
2019-06-27T04:35:20.391Z,6.00
2019-06-27T04:37:49.407Z,5.73
2019-06-27T04:40:18.723Z,5.87
2019-06-27T04:42:47.592Z,7.00
2019-06-27T04:45:16.678Z,6.60
2019-06-27T04:47:45.407Z,6.73
2019-06-27T04:50:14.321Z,6.37
2019-06-27T04:52:43.079Z,5.97
2019-06-27T04:55:11.799Z,5.97
2019-06-27T04:57:40.558Z,5.78
2019-06-27T05:00:09.666Z,6.40
2019-06-27T05:02:38.726Z,6.40
2019-06-27T05:05:07.634Z,6.60
2019-06-27T05:07:37.142Z,6.33
2019-06-27T05:10:06.451Z,6.03
2019-06-27T05:12:35.407Z,5.90
2019-06-27T05:15:04.346Z,6.23
2019-06-27T05:17:33.341Z,6.10
2019-06-27T05:20:03.462Z,5.80
2019-06-27T05:22:32.569Z,5.30
2019-06-27T05:25:01.689Z,6.37
2019-06-27T05:27:30.778Z,5.60
2019-06-27T05:30:09.576Z,5.97
2019-06-27T05:32:30.270Z,4.97
2019-06-27T05:34:59.298Z,5.33
2019-06-27T05:37:28.310Z,5.17
2019-06-27T05:39:57.047Z,4.53
2019-06-27T05:42:25.779Z,5.53
2019-06-27T05:44:54.707Z,5.43
2019-06-27T05:47:24.004Z,5.40
2019-06-27T05:49:53.298Z,5.30
2019-06-27T05:52:22.613Z,4.40
2019-06-27T05:54:53.066Z,5.33
2019-06-27T05:57:22.490Z,5.20
2019-06-27T05:59:51.402Z,5.40
2019-06-27T06:02:20.709Z,5.28
2019-06-27T06:04:50.545Z,5.40
2019-06-27T06:07:19.602Z,5.40
2019-06-27T06:09:48.598Z,5.13
2019-06-27T06:12:17.873Z,5.42
2019-06-27T06:14:47.131Z,4.87
2019-06-27T06:17:16.426Z,5.00
2019-06-27T06:19:45.257Z,5.30
2019-06-27T06:22:14.350Z,5.40
2019-06-27T06:24:43.346Z,5.23
2019-06-27T06:27:12.327Z,5.30
2019-06-27T06:29:41.094Z,5.20
2019-06-27T06:32:10.415Z,5.00
2019-06-27T06:34:40.500Z,4.63
2019-06-27T06:37:09.818Z,5.08
2019-06-27T06:39:38.847Z,4.17
2019-06-27T06:42:08.157Z,4.47
2019-06-27T06:44:36.903Z,4.30
2019-06-27T06:47:05.795Z,4.47
2019-06-27T06:49:34.521Z,4.20
2019-06-27T06:52:03.286Z,4.67
2019-06-27T06:54:32.820Z,3.50
2019-06-27T06:57:01.567Z,4.00
2019-06-27T06:59:30.612Z,4.10
2019-06-27T07:01:59.672Z,3.83
2019-06-27T07:04:28.667Z,3.67
2019-06-27T07:06:57.783Z,3.57
2019-06-27T07:09:26.557Z,3.42
2019-06-27T07:11:55.987Z,3.77
2019-06-27T07:14:28.379Z,3.13
2019-06-27T07:16:57.390Z,3.97
2019-06-27T07:19:26.155Z,3.30
2019-06-27T07:21:56.106Z,3.47
2019-06-27T07:24:25.102Z,2.90
2019-06-27T07:26:53.901Z,3.27
2019-06-27T07:29:22.689Z,3.10
2019-06-27T07:31:53.278Z,3.30
2019-06-27T07:34:22.260Z,2.80
2019-06-27T07:36:53.734Z,2.90
2019-06-27T07:39:23.096Z,2.97
2019-06-27T07:41:52.250Z,3.00
2019-06-27T07:44:21.275Z,3.00
2019-06-27T07:46:50.382Z,2.50
2019-06-27T07:49:19.454Z,3.50
2019-06-27T07:51:48.482Z,3.27
2019-06-27T07:54:17.909Z,2.67
2019-06-27T07:56:47.911Z,3.40
2019-06-27T07:59:17.049Z,3.77
2019-06-27T08:01:46.099Z,3.13
2019-06-27T08:04:16.815Z,3.40
2019-06-27T08:06:45.844Z,3.73
2019-06-27T08:09:15.028Z,3.47
2019-06-27T08:11:43.767Z,3.37
2019-06-27T08:14:12.783Z,2.93
2019-06-27T08:16:42.014Z,3.00
2019-06-27T08:19:10.774Z,2.90
2019-06-27T08:21:39.778Z,3.30
2019-06-27T08:24:09.092Z,3.60
2019-06-27T08:26:38.662Z,2.97
2019-06-27T08:29:14.589Z,3.27
2019-06-27T08:31:51.373Z,3.50
2019-06-27T08:34:16.098Z,3.10
2019-06-27T08:36:45.119Z,3.87
2019-06-27T08:39:14.385Z,2.85
2019-06-27T08:41:43.425Z,3.80
2019-06-27T08:44:12.514Z,2.70
2019-06-27T08:46:42.065Z,3.50
2019-06-27T08:49:11.679Z,2.90
2019-06-27T08:51:43.959Z,2.70
2019-06-27T08:54:13.657Z,3.07
2019-06-27T08:56:44.807Z,2.90
2019-06-27T08:59:14.066Z,2.70
2019-06-27T10:15:05.309Z,2.50
2019-06-27T10:17:34.571Z,2.90
2019-06-27T10:20:03.987Z,3.00
2019-06-27T10:22:32.898Z,2.20
2019-06-27T10:25:01.886Z,2.80
2019-06-27T10:27:30.721Z,2.07
2019-06-27T10:29:59.514Z,2.43
2019-06-27T10:32:28.508Z,2.70
2019-06-27T10:34:57.265Z,2.33
2019-06-27T10:37:26.010Z,3.10
2019-06-27T10:39:54.810Z,2.70
2019-06-27T10:42:23.573Z,1.90
2019-06-27T10:44:52.592Z,2.30
2019-06-27T10:47:21.620Z,2.20
2019-06-27T10:49:50.625Z,1.80
2019-06-27T10:52:19.708Z,1.70
2019-06-27T10:54:48.707Z,1.97
2019-06-27T10:57:17.985Z,1.85
2019-06-27T10:59:46.727Z,2.07
2019-06-27T11:02:15.913Z,1.80
2019-06-27T11:04:44.692Z,2.30
2019-06-27T11:07:13.432Z,2.23
2019-06-27T11:09:42.928Z,1.90
2019-06-27T11:12:12.270Z,1.98
2019-06-27T11:14:41.139Z,2.27
2019-06-27T11:17:10.230Z,1.70
2019-06-27T11:19:51.837Z,1.47
2019-06-27T11:22:09.845Z,2.17
2019-06-27T11:24:38.906Z,2.13
2019-06-27T11:27:08.380Z,1.77
2019-06-27T11:29:37.455Z,2.10
2019-06-27T11:32:06.337Z,1.90
2019-06-27T11:34:35.340Z,1.97
2019-06-27T11:37:04.272Z,1.83
2019-06-27T11:39:33.302Z,2.10
2019-06-27T11:42:02.406Z,1.70
2019-06-27T11:44:31.432Z,2.40
2019-06-27T11:47:00.268Z,2.27
2019-06-27T11:49:29.514Z,2.50
2019-06-27T11:51:58.528Z,2.00
2019-06-27T11:54:27.283Z,1.80
2019-06-27T11:56:56.693Z,1.70
2019-06-27T11:59:25.513Z,1.83
2019-06-27T12:01:55.046Z,1.50
2019-06-27T12:04:24.295Z,1.80
2019-06-27T12:06:53.406Z,1.63
2019-06-27T12:09:22.219Z,1.90
2019-06-27T12:11:51.217Z,1.30
2019-06-27T12:14:20.425Z,1.80
2019-06-27T12:16:49.207Z,1.77
2019-06-27T12:19:18.100Z,1.93
2019-06-27T12:21:47.357Z,1.65
2019-06-27T12:24:16.170Z,2.87
2019-06-27T12:26:44.967Z,1.60
2019-06-27T12:29:14.609Z,1.40
2019-06-27T12:31:43.510Z,1.60
2019-06-27T12:34:12.623Z,2.57
2019-06-27T12:36:41.375Z,1.70
2019-06-27T12:39:10.512Z,1.70
2019-06-27T12:41:39.249Z,1.77
2019-06-27T12:44:09.539Z,2.00
2019-06-27T12:46:38.759Z,1.90
2019-06-27T12:49:07.615Z,2.10
2019-06-27T12:51:36.392Z,1.20
2019-06-27T12:54:05.243Z,1.80
2019-06-27T12:56:34.618Z,1.70
2019-06-27T12:59:03.673Z,1.10
2019-06-27T13:01:32.649Z,2.00
2019-06-27T13:04:01.483Z,1.20
2019-06-27T13:06:30.528Z,1.90
2019-06-27T13:08:59.870Z,1.70
2019-06-27T13:11:29.177Z,1.77
2019-06-27T13:13:58.182Z,1.43
2019-06-27T13:16:30.919Z,1.60
2019-06-27T13:18:59.038Z,1.80
2019-06-27T13:21:27.791Z,1.60
2019-06-27T13:23:56.785Z,1.43
2019-06-27T13:26:25.826Z,1.77
2019-06-27T13:28:54.900Z,1.40
2019-06-27T13:31:24.130Z,1.42
2019-06-27T13:33:53.419Z,2.20
2019-06-27T13:36:22.188Z,1.37
2019-06-27T13:38:51.306Z,1.90
2019-06-27T13:41:20.567Z,1.50
2019-06-27T13:43:49.577Z,1.70
2019-06-27T13:46:18.506Z,1.53
2019-06-27T13:48:47.440Z,1.30
2019-06-27T13:51:16.276Z,1.33
2019-06-27T13:53:45.299Z,1.30
2019-06-27T13:56:14.342Z,1.60
2019-06-27T13:58:43.194Z,1.90
2019-06-27T14:01:12.753Z,1.73
2019-06-27T14:03:49.131Z,2.07
2019-06-27T14:06:13.404Z,1.63
2019-06-27T14:08:42.279Z,1.40
2019-06-27T14:11:11.755Z,1.73
2019-06-27T14:13:44.845Z,1.57
2019-06-27T14:16:14.262Z,1.23
2019-06-27T14:18:43.025Z,1.73
2019-06-27T14:21:13.441Z,1.27
2019-06-27T14:23:42.683Z,1.67
2019-06-27T14:26:11.843Z,1.50
2019-06-27T14:28:40.918Z,1.37
2019-06-27T14:31:09.694Z,1.20
2019-06-27T14:33:38.705Z,1.20
2019-06-27T14:36:07.791Z,1.60
2019-06-27T14:38:38.001Z,1.73
2019-06-27T14:41:06.998Z,1.40
2019-06-27T14:43:37.947Z,1.53
2019-06-27T14:46:06.813Z,1.02
2019-06-27T14:48:35.887Z,1.43
2019-06-27T14:51:04.728Z,1.30
2019-06-27T14:53:33.565Z,1.50
2019-06-27T14:56:02.571Z,1.50
2019-06-27T14:58:33.547Z,1.43
2019-06-27T15:01:05.777Z,1.10
2019-06-27T15:03:32.925Z,1.00
2019-06-27T15:06:02.247Z,1.10
2019-06-27T15:08:31.400Z,1.33
2019-06-27T15:11:00.186Z,1.30
2019-06-27T15:13:29.430Z,1.63
2019-06-27T15:16:11.131Z,1.92
2019-06-27T15:18:29.315Z,1.60
2019-06-27T15:20:58.186Z,1.03
2019-06-27T15:23:29.180Z,1.23
2019-06-27T15:25:58.434Z,1.20
2019-06-27T15:28:27.498Z,1.50
2019-06-27T15:30:56.314Z,1.63
2019-06-27T15:33:26.216Z,1.77
2019-06-27T15:35:55.594Z,1.97
2019-06-27T15:38:24.594Z,2.37
2019-06-27T15:40:55.494Z,1.30
2019-06-27T15:43:24.567Z,1.50
2019-06-27T15:45:53.382Z,3.77
2019-06-27T15:48:22.454Z,1.50
2019-06-27T15:50:51.198Z,1.60
2019-06-27T15:53:20.031Z,1.50
2019-06-27T15:55:49.281Z,1.67
2019-06-27T15:58:18.035Z,1.77
2019-06-27T16:00:47.622Z,1.83
2019-06-27T16:03:16.508Z,2.03
2019-06-27T16:05:45.471Z,1.90
2019-06-27T16:08:14.614Z,1.90
2019-06-27T16:10:43.423Z,2.10
2019-06-27T16:13:12.884Z,1.27
2019-06-27T16:15:41.783Z,1.60
2019-06-27T16:18:10.794Z,1.80
2019-06-27T16:20:39.678Z,1.30
2019-06-27T16:23:08.954Z,1.60
2019-06-27T16:25:37.742Z,1.67
2019-06-27T16:28:06.615Z,1.63
2019-06-27T16:30:36.397Z,1.97
2019-06-27T16:33:06.867Z,1.53
2019-06-27T16:35:36.221Z,1.67
2019-06-27T16:38:04.981Z,1.90
2019-06-27T16:40:33.899Z,1.93
2019-06-27T16:43:02.689Z,2.00
2019-06-27T16:45:31.674Z,1.77
2019-06-27T16:48:00.927Z,1.60
2019-06-27T16:50:29.710Z,1.70
2019-06-27T16:52:58.637Z,2.10
2019-06-27T16:55:27.607Z,1.87
2019-06-27T16:57:56.601Z,1.60
2019-06-27T17:00:25.760Z,1.90
2019-06-27T17:02:54.811Z,1.50
2019-06-27T17:05:23.578Z,1.70
2019-06-27T17:07:52.694Z,2.03
2019-06-27T17:10:21.598Z,2.03
2019-06-27T17:12:50.610Z,1.80
2019-06-27T17:15:24.749Z,1.80
2019-06-27T17:17:54.038Z,1.53
2019-06-27T17:20:22.843Z,2.10
2019-06-27T17:22:52.401Z,1.80
2019-06-27T17:25:21.389Z,1.30
2019-06-27T17:27:50.806Z,2.00
2019-06-27T17:30:20.494Z,1.37
2019-06-27T17:32:49.776Z,1.67
2019-06-27T17:35:19.292Z,2.10
2019-06-27T17:37:48.791Z,1.95
2019-06-27T17:40:18.168Z,1.63
2019-06-27T17:42:46.930Z,1.73
2019-06-27T17:45:16.214Z,1.80
2019-06-27T17:47:45.129Z,1.40
2019-06-27T17:50:14.260Z,1.43
2019-06-27T17:52:43.257Z,1.63
2019-06-27T17:55:12.128Z,1.77
2019-06-27T17:57:41.090Z,1.90
2019-06-27T18:00:10.675Z,1.77
2019-06-27T18:02:39.579Z,1.90
2019-06-27T18:05:08.705Z,1.80
2019-06-27T18:07:38.013Z,1.90
2019-06-27T18:10:07.047Z,1.63
2019-06-27T18:12:36.148Z,1.87
2019-06-27T18:15:05.125Z,2.00
2019-06-27T18:17:34.346Z,1.80
2019-06-27T18:20:03.263Z,1.57
2019-06-27T18:22:32.942Z,2.07
2019-06-27T18:25:01.989Z,2.17
2019-06-27T18:27:30.792Z,2.40
2019-06-27T18:29:59.626Z,2.60
2019-06-27T18:32:28.440Z,1.90
2019-06-27T18:34:57.483Z,2.30
2019-06-27T18:37:29.939Z,2.07
2019-06-27T18:39:56.902Z,2.45
2019-06-27T18:42:26.223Z,2.10
2019-06-27T18:44:58.332Z,2.17
2019-06-27T18:47:27.374Z,2.30
2019-06-27T18:49:56.864Z,1.80
2019-06-27T18:52:26.551Z,2.00
2019-06-27T18:54:55.722Z,2.20
2019-06-27T18:57:24.769Z,2.13
2019-06-27T18:59:53.941Z,1.87
2019-06-27T19:02:23.250Z,1.90
2019-06-27T19:04:52.001Z,1.90
2019-06-27T19:07:21.006Z,2.10
2019-06-27T19:09:50.302Z,1.57
2019-06-27T19:12:19.571Z,1.90
2019-06-27T19:14:48.943Z,1.60
2019-06-27T19:17:18.189Z,2.53
2019-06-27T19:19:49.939Z,2.00
2019-06-27T19:22:36.426Z,1.90
2019-06-27T19:25:10.047Z,1.60
2019-06-27T19:27:38.965Z,2.10
2019-06-27T19:30:08.666Z,1.70
2019-06-27T19:32:37.986Z,1.73
2019-06-27T19:35:07.027Z,1.73
2019-06-27T19:37:35.767Z,1.60
2019-06-27T19:40:07.142Z,1.77
2019-06-27T19:42:36.166Z,2.00
2019-06-27T19:45:05.376Z,1.70
2019-06-27T19:47:34.607Z,1.77
2019-06-27T19:50:03.648Z,1.57
2019-06-27T19:52:32.637Z,1.60
2019-06-27T19:55:12.210Z,1.40
2019-06-27T19:57:41.803Z,1.90
2019-06-27T20:00:11.139Z,1.50
2019-06-27T20:02:40.225Z,1.70
2019-06-27T20:05:09.147Z,1.63
2019-06-27T20:07:52.160Z,1.60
2019-06-27T20:10:21.688Z,1.87
2019-06-27T20:12:50.799Z,1.60
2019-06-27T20:15:19.724Z,1.90
2019-06-27T20:17:48.921Z,1.30
2019-06-27T20:20:17.955Z,1.50
2019-06-27T20:22:46.842Z,1.40
2019-06-27T20:25:15.690Z,1.33
2019-06-27T20:27:44.662Z,1.67
2019-06-27T20:30:13.822Z,1.77
2019-06-27T20:32:42.855Z,1.45
2019-06-27T20:35:11.862Z,1.30
2019-06-27T20:37:41.059Z,1.40
2019-06-27T20:40:10.338Z,1.10
2019-06-27T20:42:39.576Z,1.00
2019-06-27T20:45:09.409Z,1.30
2019-06-27T20:47:38.162Z,1.60
2019-06-27T20:50:07.387Z,1.17
2019-06-27T20:52:36.615Z,1.10
2019-06-27T20:55:05.844Z,1.30
2019-06-27T20:57:35.972Z,1.47
2019-06-27T21:00:05.418Z,1.80
2019-06-27T21:02:34.241Z,1.43
2019-06-27T21:05:03.086Z,1.30
2019-06-27T21:07:32.152Z,1.57
2019-06-27T21:10:01.412Z,1.80
2019-06-27T21:12:30.230Z,1.30
2019-06-27T21:14:59.074Z,2.03
2019-06-27T21:17:27.814Z,1.67
2019-06-27T21:19:56.580Z,2.00
2019-06-27T21:22:25.326Z,2.00
2019-06-27T21:24:54.082Z,1.90
2019-06-27T21:27:22.858Z,2.53
2019-06-27T21:29:51.847Z,1.80
2019-06-27T21:32:31.020Z,2.10
2019-06-27T21:34:52.084Z,2.50
2019-06-27T21:37:21.123Z,2.30
2019-06-27T21:39:49.862Z,2.80
2019-06-27T21:42:19.277Z,2.60
2019-06-27T21:44:48.383Z,2.87
2019-06-27T21:47:17.357Z,2.42
2019-06-27T21:49:46.338Z,3.20
2019-06-27T21:52:15.116Z,2.90
2019-06-27T21:54:45.255Z,3.37
2019-06-27T21:57:14.477Z,2.60
2019-06-27T21:59:43.367Z,3.40
2019-06-27T22:02:12.535Z,3.67
2019-06-27T22:04:41.424Z,3.33
2019-06-27T22:07:10.269Z,3.27
2019-06-27T22:09:39.404Z,2.50
2019-06-27T22:12:08.798Z,3.00
2019-06-27T22:14:37.927Z,3.00
2019-06-27T22:17:06.726Z,2.60
2019-06-27T22:19:35.482Z,2.13
2019-06-27T22:22:04.399Z,2.67
2019-06-27T22:24:33.626Z,3.27
2019-06-27T22:27:02.700Z,3.13
2019-06-27T22:29:31.990Z,3.30
2019-06-27T22:32:01.007Z,2.98
2019-06-27T22:34:30.265Z,3.30
2019-06-27T22:37:03.677Z,3.30
2019-06-27T22:39:52.013Z,3.20
2019-06-27T22:42:38.543Z,2.93
2019-06-27T22:45:25.833Z,2.73
2019-06-27T22:48:12.534Z,2.63
2019-06-27T22:51:05.917Z,3.50
2019-06-27T22:53:39.819Z,3.17
2019-06-27T22:56:08.850Z,3.50
2019-06-27T22:58:37.866Z,3.80
2019-06-27T23:01:07.561Z,3.42
2019-06-27T23:03:36.890Z,3.43
2019-06-27T23:06:05.697Z,3.10
2019-06-27T23:08:34.602Z,3.50
2019-06-27T23:11:03.606Z,3.20
2019-06-27T23:13:32.427Z,3.33
2019-06-27T23:16:01.186Z,2.80
2019-06-27T23:18:30.215Z,3.05
2019-06-27T23:20:59.247Z,2.97
2019-06-27T23:23:28.702Z,3.37
2019-06-27T23:25:57.908Z,3.10
2019-06-27T23:28:26.661Z,3.53
2019-06-27T23:30:55.679Z,3.03
2019-06-27T23:33:24.501Z,3.47
2019-06-27T23:35:53.266Z,3.37
2019-06-27T23:38:22.005Z,3.00
2019-06-27T23:40:50.835Z,3.30
2019-06-27T23:43:20.171Z,3.47
2019-06-27T23:45:49.149Z,3.60
2019-06-27T23:48:18.192Z,3.33
2019-06-27T23:50:47.518Z,3.97
2019-06-27T23:53:16.550Z,3.47
2019-06-27T23:55:45.384Z,3.50
2019-06-27T23:58:14.642Z,3.50
